Time;durP1;ratioP1;P1;durP2;ratioP2;P2;SDS_P1;SDS_P2;PMS_P1;PMS_P2;Temp;Humidity;BMP_temperature;BMP_pressure;BME280_temperature;BME280_humidity;BME280_pressure;Samples;Min_cycle;Max_cycle;Signal;HPM_P1;HPM_P2
2022/09/07 00:00:49;;;;;;;2.90;1.50;;;22.50;81.70;;;;;;7388530;19;20427;-48
2022/09/07 00:03:19;;;;;;;2.97;1.83;;;22.50;81.20;;;;;;7388278;19;20416;-48
2022/09/07 00:05:50;;;;;;;2.70;1.63;;;22.50;80.40;;;;;;7386928;19;20409;-48
2022/09/07 00:08:22;;;;;;;2.50;1.70;;;22.60;80.10;;;;;;7388115;19;20416;-48
2022/09/07 00:10:56;;;;;;;7.03;2.37;;;22.80;79.90;;;;;;7388112;19;20376;-48
2022/09/07 00:13:30;;;;;;;4.90;1.73;;;22.80;78.90;;;;;;7389585;19;20386;-48
2022/09/07 00:16:05;;;;;;;3.00;1.60;;;22.70;78.40;;;;;;7389473;19;20390;-48
2022/09/07 00:18:34;;;;;;;1.80;1.50;;;22.70;78.40;;;;;;7389675;19;21055;-48
2022/09/07 00:21:06;;;;;;;5.53;1.90;;;22.70;78.40;;;;;;7388400;19;20379;-56
2022/09/07 00:23:38;;;;;;;4.80;1.60;;;22.60;78.00;;;;;;7387629;19;20465;-56
2022/09/07 00:26:10;;;;;;;5.90;1.80;;;22.40;78.90;;;;;;7387251;19;20377;-57
2022/09/07 00:28:43;;;;;;;3.00;1.30;;;22.40;78.90;;;;;;7389897;19;20740;-56
2022/09/07 00:31:14;;;;;;;2.37;1.57;;;22.40;78.70;;;;;;7389568;19;20415;-57
2022/09/07 00:33:44;;;;;;;3.23;1.90;;;22.60;78.50;;;;;;7386536;19;20438;-57
2022/09/07 00:36:14;;;;;;;6.93;1.97;;;22.70;77.70;;;;;;7387691;19;20365;-57
2022/09/07 00:38:43;;;;;;;3.53;1.40;;;22.70;76.50;;;;;;7386306;19;20368;-56
2022/09/07 00:41:16;;;;;;;4.20;2.10;;;22.70;76.90;;;;;;7387220;19;20388;-56
2022/09/07 00:43:53;;;;;;;2.80;1.70;;;22.50;77.50;;;;;;7388800;19;20372;-56
2022/09/07 00:46:25;;;;;;;2.83;2.10;;;22.50;78.20;;;;;;7384977;19;20920;-56
2022/09/07 00:48:59;;;;;;;1.57;1.47;;;22.50;78.50;;;;;;7388799;19;20970;-56
2022/09/07 00:51:35;;;;;;;2.83;1.70;;;22.50;78.30;;;;;;7388371;19;20751;-56
2022/09/07 00:54:08;;;;;;;2.63;1.17;;;22.60;77.90;;;;;;7388867;19;20375;-56
2022/09/07 00:56:42;;;;;;;4.00;2.10;;;22.60;77.60;;;;;;7387894;19;20391;-56
2022/09/07 00:59:17;;;;;;;5.43;1.80;;;22.60;77.70;;;;;;7388549;19;20367;-56
2022/09/07 01:01:47;;;;;;;4.13;1.70;;;22.60;78.00;;;;;;7386736;19;20436;-56
2022/09/07 01:04:17;;;;;;;2.53;1.73;;;22.60;77.60;;;;;;7386674;19;20380;-56
2022/09/07 01:06:47;;;;;;;3.27;1.83;;;22.50;77.80;;;;;;7387510;19;20392;-56
2022/09/07 01:09:21;;;;;;;2.73;1.60;;;22.70;77.10;;;;;;7385313;19;20364;-56
2022/09/07 01:11:55;;;;;;;2.03;1.50;;;22.80;76.50;;;;;;7386866;19;20451;-55
2022/09/07 01:14:31;;;;;;;12.93;2.00;;;22.90;76.50;;;;;;7388592;19;20380;-56
2022/09/07 01:17:10;;;;;;;2.00;1.80;;;23.00;76.30;;;;;;7386748;19;20383;-57
2022/09/07 01:20:03;;;;;;;5.50;2.07;;;22.90;77.00;;;;;;7387698;19;20379;-48
2022/09/07 01:23:01;;;;;;;2.90;2.03;;;23.00;77.10;;;;;;7386881;19;20376;-48
2022/09/07 01:25:44;;;;;;;2.53;1.63;;;23.00;77.00;;;;;;7386136;19;20383;-48
2022/09/07 01:28:20;;;;;;;4.00;1.87;;;23.10;76.70;;;;;;7387747;19;20715;-48
2022/09/07 01:30:57;;;;;;;4.13;2.43;;;23.00;77.30;;;;;;7387069;19;20443;-48
2022/09/07 01:33:45;;;;;;;3.80;1.53;;;23.00;76.90;;;;;;7387058;19;20371;-48
2022/09/07 01:36:24;;;;;;;6.00;1.97;;;23.10;76.90;;;;;;7386214;19;20379;-48
2022/09/07 01:38:56;;;;;;;4.97;1.90;;;23.20;76.50;;;;;;7385425;19;20376;-48
2022/09/07 01:41:34;;;;;;;5.63;1.83;;;23.20;76.10;;;;;;7386061;19;20365;-48
2022/09/07 01:44:12;;;;;;;6.10;2.60;;;23.10;76.60;;;;;;7386179;19;20751;-48
2022/09/07 01:46:47;;;;;;;4.07;2.00;;;23.10;76.90;;;;;;7383943;19;20375;-48
2022/09/07 01:49:22;;;;;;;4.80;1.87;;;23.10;76.60;;;;;;7385110;19;20380;-49
2022/09/07 01:51:55;;;;;;;2.60;1.53;;;23.10;76.70;;;;;;7386417;19;20390;-57
2022/09/07 01:54:32;;;;;;;4.43;1.80;;;23.10;77.10;;;;;;7381733;19;20394;-56
2022/09/07 01:57:06;;;;;;;5.47;1.90;;;23.10;77.60;;;;;;7383332;19;20376;-56
2022/09/07 01:59:44;;;;;;;4.80;2.70;;;23.10;77.80;;;;;;7384015;19;20366;-56
2022/09/07 02:02:17;;;;;;;2.23;1.93;;;23.20;77.70;;;;;;7381869;19;20970;-56
2022/09/07 02:04:54;;;;;;;2.63;1.50;;;23.20;77.50;;;;;;7385332;19;20386;-57
2022/09/07 02:07:28;;;;;;;4.40;1.90;;;23.20;77.70;;;;;;7382631;19;20387;-56
2022/09/07 02:10:02;;;;;;;4.30;2.30;;;23.30;77.90;;;;;;7384298;19;20368;-56
2022/09/07 02:12:37;;;;;;;3.60;1.80;;;23.30;77.70;;;;;;7385835;19;20765;-56
2022/09/07 02:15:16;;;;;;;4.30;2.43;;;23.30;77.80;;;;;;7386757;19;20722;-56
2022/09/07 02:17:51;;;;;;;2.83;1.80;;;23.40;78.10;;;;;;7384260;19;20445;-56
2022/09/07 02:20:25;;;;;;;2.93;1.70;;;23.40;78.30;;;;;;7385501;19;21045;-58
2022/09/07 02:22:58;;;;;;;3.33;1.70;;;23.50;78.20;;;;;;7383256;19;20393;-56
2022/09/07 02:25:36;;;;;;;2.83;1.90;;;23.50;79.60;;;;;;7383375;19;20909;-56
2022/09/07 02:28:10;;;;;;;3.20;1.93;;;23.50;79.00;;;;;;7382874;19;20389;-56
2022/09/07 02:30:42;;;;;;;4.80;1.93;;;23.50;78.70;;;;;;7383396;19;20360;-56
2022/09/07 02:33:12;;;;;;;3.00;1.90;;;23.40;79.50;;;;;;7380715;19;20368;-57
2022/09/07 02:35:42;;;;;;;3.23;2.40;;;23.40;79.90;;;;;;7380743;19;20388;-56
2022/09/07 02:38:11;;;;;;;4.77;2.60;;;23.40;79.90;;;;;;7384850;19;20384;-56
2022/09/07 02:40:41;;;;;;;2.60;1.63;;;23.40;80.40;;;;;;7385811;19;20365;-56
2022/09/07 02:43:12;;;;;;;4.77;2.10;;;23.40;81.00;;;;;;7382732;19;20384;-57
2022/09/07 02:46:00;;;;;;;3.13;2.07;;;23.30;81.30;;;;;;7383144;19;20412;-56
2022/09/07 02:48:40;;;;;;;2.97;2.30;;;23.40;81.70;;;;;;7384496;19;20383;-56
2022/09/07 02:51:17;;;;;;;4.60;2.87;;;23.30;82.00;;;;;;7383270;19;20380;-56
2022/09/07 02:54:28;;;;;;;6.00;2.23;;;23.30;82.20;;;;;;7381826;19;20368;-56
2022/09/07 02:57:07;;;;;;;2.60;2.30;;;23.20;82.20;;;;;;7385212;19;20403;-56
2022/09/07 02:59:57;;;;;;;4.53;2.13;;;23.30;82.60;;;;;;7392177;19;20380;-56
2022/09/07 03:02:33;;;;;;;5.73;2.10;;;23.30;82.70;;;;;;7386667;19;20424;-56
2022/09/07 03:05:07;;;;;;;6.37;2.40;;;23.30;83.40;;;;;;7389053;19;20376;-56
2022/09/07 03:07:41;;;;;;;4.80;2.10;;;23.30;84.00;;;;;;7389462;19;20384;-56
2022/09/07 03:10:11;;;;;;;3.50;2.40;;;23.30;84.00;;;;;;7390466;19;20412;-56
2022/09/07 03:12:43;;;;;;;4.43;2.37;;;23.30;84.10;;;;;;7391862;19;20376;-56
2022/09/07 03:15:14;;;;;;;4.57;2.67;;;23.40;84.10;;;;;;7391666;19;20384;-56
2022/09/07 03:17:47;;;;;;;3.13;1.90;;;23.30;84.40;;;;;;7390284;19;20368;-57
2022/09/07 03:20:21;;;;;;;5.43;2.60;;;23.30;85.00;;;;;;7391102;19;20881;-56
2022/09/07 03:22:52;;;;;;;3.20;2.43;;;23.30;85.60;;;;;;7389539;19;20368;-56
2022/09/07 03:25:22;;;;;;;3.67;2.37;;;23.30;85.60;;;;;;7391471;19;20400;-56
2022/09/07 03:27:51;;;;;;;5.33;2.70;;;23.10;86.10;;;;;;7389879;19;20467;-55
2022/09/07 03:30:21;;;;;;;4.03;2.40;;;23.00;87.10;;;;;;7388093;19;20395;-56
2022/09/07 03:32:55;;;;;;;5.87;2.60;;;22.90;87.50;;;;;;7390247;19;20380;-56
2022/09/07 03:35:25;;;;;;;3.73;2.40;;;22.90;89.00;;;;;;7390658;19;20368;-56
2022/09/07 03:37:55;;;;;;;4.40;2.20;;;22.70;90.30;;;;;;7391922;19;20668;-54
2022/09/07 03:40:24;;;;;;;4.70;2.40;;;22.50;91.50;;;;;;7389977;19;20933;-56
2022/09/07 03:42:53;;;;;;;4.10;2.33;;;22.30;92.60;;;;;;7391083;19;20387;-55
2022/09/07 03:45:23;;;;;;;5.97;2.33;;;22.20;93.30;;;;;;7389737;19;20415;-56
2022/09/07 03:47:56;;;;;;;6.70;2.40;;;22.10;94.10;;;;;;7388391;19;20387;-56
2022/09/07 03:50:25;;;;;;;4.60;2.70;;;22.00;94.80;;;;;;7388944;19;20933;-47
2022/09/07 03:52:55;;;;;;;4.43;2.80;;;21.90;96.20;;;;;;7390402;19;20392;-48
2022/09/07 03:55:24;;;;;;;4.27;2.23;;;21.70;97.90;;;;;;7388223;19;20465;-48
2022/09/07 03:57:54;;;;;;;4.60;2.87;;;21.60;98.80;;;;;;7390140;19;20392;-48
2022/09/07 04:00:23;;;;;;;5.30;2.27;;;21.60;99.90;;;;;;7387162;19;20416;-48
2022/09/07 04:02:59;;;;;;;4.30;2.40;;;21.60;99.90;;;;;;7387665;19;20406;-48
2022/09/07 04:05:28;;;;;;;4.53;2.60;;;21.60;99.90;;;;;;7387870;19;20410;-48
2022/09/07 04:07:58;;;;;;;3.30;3.00;;;21.60;99.90;;;;;;7385775;19;20380;-48
2022/09/07 04:10:27;;;;;;;4.63;2.30;;;21.40;99.90;;;;;;7389222;19;20372;-48
2022/09/07 04:12:57;;;;;;;4.73;2.27;;;21.30;99.90;;;;;;7387607;19;21046;-48
2022/09/07 04:15:31;;;;;;;4.13;2.30;;;21.30;99.90;;;;;;7390267;19;20387;-48
2022/09/07 04:18:03;;;;;;;4.33;3.10;;;21.40;99.90;;;;;;7389617;19;20472;-48
2022/09/07 04:20:32;;;;;;;4.27;2.83;;;21.40;99.90;;;;;;7388859;19;20372;-48
2022/09/07 04:23:02;;;;;;;4.13;2.73;;;21.40;99.90;;;;;;7389538;19;20384;-48
2022/09/07 04:25:31;;;;;;;4.40;2.87;;;21.40;99.90;;;;;;7387134;19;20387;-48
2022/09/07 04:28:01;;;;;;;4.00;2.40;;;21.40;99.90;;;;;;7387679;19;20384;-48
2022/09/07 04:30:30;;;;;;;6.87;2.70;;;21.50;99.90;;;;;;7389001;19;20376;-48
2022/09/07 04:33:03;;;;;;;4.90;2.43;;;21.40;99.90;;;;;;7387450;19;20384;-48
2022/09/07 04:35:32;;;;;;;3.30;2.53;;;21.40;99.90;;;;;;7387115;19;20890;-48
2022/09/07 04:38:02;;;;;;;4.53;2.70;;;21.30;99.90;;;;;;7386450;19;20412;-48
2022/09/07 04:40:31;;;;;;;4.40;2.60;;;21.30;99.90;;;;;;7387602;19;20758;-48
2022/09/07 04:43:01;;;;;;;4.87;2.70;;;21.30;99.90;;;;;;7388211;19;20738;-48
2022/09/07 04:45:31;;;;;;;6.67;3.13;;;21.10;99.90;;;;;;7387244;19;20372;-47
2022/09/07 04:48:03;;;;;;;7.83;3.30;;;21.10;99.90;;;;;;7385220;19;20384;-48
2022/09/07 04:50:33;;;;;;;3.60;2.40;;;21.10;99.90;;;;;;7388823;19;20364;-48
2022/09/07 04:53:05;;;;;;;4.73;2.43;;;21.10;99.90;;;;;;7387976;19;20384;-48
2022/09/07 04:55:34;;;;;;;5.23;2.60;;;21.20;99.90;;;;;;7388889;19;20400;-47
2022/09/07 04:58:04;;;;;;;5.83;2.30;;;21.10;99.90;;;;;;7386372;19;20423;-48
2022/09/07 05:00:34;;;;;;;6.77;3.10;;;21.20;99.90;;;;;;7384694;19;20427;-55
2022/09/07 05:03:08;;;;;;;7.70;3.93;;;21.30;99.90;;;;;;7385748;19;20405;-56
2022/09/07 05:05:39;;;;;;;4.07;2.50;;;21.40;99.90;;;;;;7387724;19;20384;-56
2022/09/07 05:08:09;;;;;;;9.03;2.90;;;21.50;99.90;;;;;;7382765;19;20933;-56
2022/09/07 05:10:41;;;;;;;4.27;2.80;;;21.50;99.90;;;;;;7387111;19;20376;-56
2022/09/07 05:13:10;;;;;;;5.90;3.60;;;21.50;99.90;;;;;;7385461;19;20376;-57
2022/09/07 05:15:40;;;;;;;5.23;3.13;;;21.50;99.90;;;;;;7386444;19;20376;-56
2022/09/07 05:18:12;;;;;;;11.23;2.90;;;21.50;99.90;;;;;;7387208;19;20763;-56
2022/09/07 05:20:42;;;;;;;3.00;2.70;;;21.60;99.90;;;;;;7385237;19;21002;-56
2022/09/07 05:23:13;;;;;;;5.60;2.83;;;21.70;99.90;;;;;;7387292;19;20395;-57
2022/09/07 05:25:45;;;;;;;8.27;3.10;;;21.80;99.90;;;;;;7387024;19;20407;-56
2022/09/07 05:28:15;;;;;;;3.60;2.47;;;21.70;99.90;;;;;;7385804;19;20387;-56
2022/09/07 05:30:45;;;;;;;9.83;3.07;;;21.70;99.90;;;;;;7387083;19;20379;-48
2022/09/07 05:33:17;;;;;;;8.70;3.00;;;21.70;99.90;;;;;;7387191;19;20373;-48
2022/09/07 05:35:57;;;;;;;6.27;3.00;;;21.80;99.90;;;;;;7385202;19;20377;-48
2022/09/07 05:38:26;;;;;;;5.07;3.67;;;21.80;99.90;;;;;;7386273;19;20453;-49
2022/09/07 05:40:57;;;;;;;3.90;3.17;;;21.70;99.90;;;;;;7385389;19;20389;-48
2022/09/07 05:43:26;;;;;;;6.70;3.40;;;21.90;99.90;;;;;;7385445;19;21292;-49
2022/09/07 05:45:57;;;;;;;5.60;4.77;;;21.90;99.90;;;;;;7385416;19;20380;-48
2022/09/07 05:48:29;;;;;;;3.73;2.70;;;21.90;99.90;;;;;;7382149;19;20391;-48
2022/09/07 05:50:58;;;;;;;5.20;2.80;;;21.90;99.90;;;;;;7385254;19;20383;-49
2022/09/07 05:53:28;;;;;;;7.90;3.40;;;22.00;99.90;;;;;;7383797;19;20991;-49
2022/09/07 05:56:00;;;;;;;7.60;3.20;;;22.10;99.90;;;;;;7386017;19;20410;-48
2022/09/07 05:58:31;;;;;;;6.17;3.23;;;22.20;99.90;;;;;;7383425;19;20455;-48
2022/09/07 06:01:01;;;;;;;4.50;3.10;;;22.10;99.90;;;;;;7383995;19;20781;-56
2022/09/07 06:03:33;;;;;;;4.80;2.83;;;22.00;99.90;;;;;;7386101;19;20805;-55
2022/09/07 06:06:04;;;;;;;6.00;2.90;;;22.20;99.90;;;;;;7384290;19;20399;-57
2022/09/07 06:08:36;;;;;;;4.10;3.10;;;22.20;99.90;;;;;;7384643;19;20785;-57
2022/09/07 06:11:07;;;;;;;7.03;3.50;;;22.10;99.90;;;;;;7384356;19;20372;-56
2022/09/07 06:13:37;;;;;;;6.90;3.30;;;22.10;99.90;;;;;;7386131;19;20388;-57
2022/09/07 06:16:08;;;;;;;5.90;3.03;;;22.10;99.90;;;;;;7384186;19;20376;-56
2022/09/07 06:18:42;;;;;;;5.97;3.50;;;22.20;99.90;;;;;;7386069;19;20376;-57
2022/09/07 06:21:13;;;;;;;3.90;2.70;;;22.30;99.90;;;;;;7384679;19;20379;-56
2022/09/07 06:23:44;;;;;;;3.30;2.63;;;22.30;99.90;;;;;;7385740;19;20379;-56
2022/09/07 06:26:15;;;;;;;7.07;3.53;;;22.20;99.90;;;;;;7382337;19;20369;-57
2022/09/07 06:28:46;;;;;;;6.67;2.73;;;22.30;99.90;;;;;;7382090;19;20380;-57
2022/09/07 06:31:21;;;;;;;4.10;2.90;;;22.50;99.90;;;;;;7384196;19;20388;-49
2022/09/07 06:33:54;;;;;;;6.77;3.00;;;22.60;99.90;;;;;;7386130;19;20424;-48
2022/09/07 06:36:26;;;;;;;5.37;2.60;;;22.80;97.80;;;;;;7383784;19;20395;-48
2022/09/07 06:38:57;;;;;;;5.80;3.13;;;22.90;96.10;;;;;;7383876;19;20415;-48
2022/09/07 06:41:31;;;;;;;4.17;2.70;;;23.10;96.60;;;;;;7385191;19;20400;-48
2022/09/07 06:44:01;;;;;;;5.03;2.90;;;23.30;96.10;;;;;;7382816;19;20396;-48
2022/09/07 06:46:33;;;;;;;6.23;2.87;;;23.30;94.70;;;;;;7384922;19;20880;-48
2022/09/07 06:49:06;;;;;;;5.57;2.60;;;23.40;95.00;;;;;;7380976;19;20748;-48
2022/09/07 06:51:35;;;;;;;6.20;3.10;;;23.50;94.60;;;;;;7385050;19;20364;-48
2022/09/07 06:54:05;;;;;;;3.80;2.77;;;23.50;93.80;;;;;;7384280;19;20375;-48
2022/09/07 06:56:35;;;;;;;4.47;2.40;;;23.70;93.80;;;;;;7384758;19;21056;-49
2022/09/07 06:59:06;;;;;;;4.20;2.20;;;23.90;93.10;;;;;;7384541;19;20389;-48
2022/09/07 07:01:36;;;;;;;6.87;2.80;;;23.90;91.50;;;;;;7382430;19;20467;-48
2022/09/07 07:04:08;;;;;;;9.70;3.27;;;24.10;91.40;;;;;;7383341;19;20392;-48
2022/09/07 07:06:39;;;;;;;5.63;2.80;;;24.20;91.00;;;;;;7384145;19;20384;-48
2022/09/07 07:09:13;;;;;;;4.27;2.67;;;24.20;89.30;;;;;;7379955;19;20396;-49
2022/09/07 07:11:46;;;;;;;4.87;2.90;;;24.30;89.80;;;;;;7384156;19;20975;-48
2022/09/07 07:14:16;;;;;;;5.07;3.00;;;24.40;90.40;;;;;;7383092;19;20437;-48
2022/09/07 07:16:46;;;;;;;6.93;2.40;;;24.60;90.00;;;;;;7379549;19;20380;-48
2022/09/07 07:19:18;;;;;;;5.93;3.00;;;24.70;90.60;;;;;;7382478;19;20376;-48
2022/09/07 07:21:48;;;;;;;4.17;1.80;;;24.90;90.20;;;;;;7383601;19;20379;-49
2022/09/07 07:24:17;;;;;;;8.83;2.90;;;25.00;82.50;;;;;;7382749;19;20384;-48
2022/09/07 07:26:47;;;;;;;7.30;3.00;;;25.10;81.40;;;;;;7382038;19;21045;-48
2022/09/07 07:29:17;;;;;;;5.13;2.60;;;25.30;79.00;;;;;;7380601;19;20384;-49
2022/09/07 07:31:49;;;;;;;5.03;2.23;;;25.30;78.30;;;;;;7383967;19;20388;-48
2022/09/07 07:34:21;;;;;;;4.40;2.30;;;25.50;78.60;;;;;;7380219;19;20372;-49
2022/09/07 07:36:51;;;;;;;6.03;2.47;;;25.70;77.50;;;;;;7382877;19;20398;-49
2022/09/07 07:39:20;;;;;;;3.10;2.10;;;25.90;76.40;;;;;;7381069;19;20448;-48
2022/09/07 07:44:16;;;;;;;6.50;2.83;;;25.90;74.20;;;;;;7385111;19;20746;-48
2022/09/07 07:46:49;;;;;;;4.03;2.17;;;26.10;75.30;;;;;;7389188;19;20376;-49
2022/09/07 07:49:21;;;;;;;4.20;1.90;;;26.20;72.40;;;;;;7386254;19;20380;-49
2022/09/07 07:51:51;;;;;;;6.60;2.50;;;26.30;71.60;;;;;;7389174;19;20380;-48
2022/09/07 07:54:21;;;;;;;4.83;2.10;;;26.40;70.90;;;;;;7390578;19;20376;-48
2022/09/07 07:56:51;;;;;;;4.73;2.30;;;26.50;70.90;;;;;;7389070;19;20380;-49
2022/09/07 07:59:20;;;;;;;4.77;2.83;;;26.60;70.40;;;;;;7388753;19;20412;-48
2022/09/07 08:01:52;;;;;;;2.77;2.00;;;26.80;69.40;;;;;;7385388;19;20428;-57
2022/09/07 08:04:24;;;;;;;3.87;2.10;;;27.10;68.90;;;;;;7386864;19;20384;-57
2022/09/07 08:06:54;;;;;;;6.30;2.40;;;27.10;67.10;;;;;;7385876;19;20403;-57
2022/09/07 08:09:23;;;;;;;8.63;3.17;;;27.10;67.10;;;;;;7386478;19;20372;-57
2022/09/07 08:11:53;;;;;;;4.03;2.57;;;26.90;66.60;;;;;;7389556;19;20431;-57
2022/09/07 08:14:23;;;;;;;4.47;2.80;;;26.90;66.80;;;;;;7387983;19;20388;-57
2022/09/07 08:16:53;;;;;;;3.50;2.00;;;26.90;67.10;;;;;;7388855;19;20652;-57
2022/09/07 08:19:27;;;;;;;4.80;2.33;;;26.90;67.60;;;;;;7390126;19;20379;-57
2022/09/07 08:21:59;;;;;;;5.00;3.30;;;26.90;66.90;;;;;;7388189;19;20383;-58
2022/09/07 08:24:28;;;;;;;3.70;2.43;;;26.90;66.90;;;;;;7388837;19;20384;-58
2022/09/07 08:26:58;;;;;;;6.70;2.87;;;27.00;66.10;;;;;;7386886;19;20435;-58
2022/09/07 08:29:27;;;;;;;6.00;2.10;;;27.30;65.80;;;;;;7385313;19;20965;-57
2022/09/07 08:31:57;;;;;;;5.30;2.17;;;27.60;64.00;;;;;;7388188;19;20388;-49
2022/09/07 08:34:29;;;;;;;4.97;1.90;;;27.90;62.60;;;;;;7386501;19;20414;-49
2022/09/07 08:36:58;;;;;;;2.40;1.97;;;28.30;61.60;;;;;;7388160;19;20468;-48
2022/09/07 08:39:28;;;;;;;6.83;2.00;;;28.70;60.30;;;;;;7388447;19;20380;-49
2022/09/07 08:42:12;;;;;;;5.00;2.20;;;29.00;59.40;;;;;;7386719;19;20731;-48
2022/09/07 08:44:48;;;;;;;3.63;1.67;;;29.30;58.50;;;;;;7388154;19;20368;-48
2022/09/07 08:47:28;;;;;;;7.30;2.07;;;29.40;57.30;;;;;;7388333;19;20909;-49
2022/09/07 08:50:07;;;;;;;10.17;2.57;;;29.80;57.00;;;;;;7386310;19;20384;-48
2022/09/07 08:52:48;;;;;;;6.50;2.53;;;29.90;55.50;;;;;;7385695;19;20373;-49
2022/09/07 08:55:26;;;;;;;5.30;2.40;;;30.10;55.80;;;;;;7387302;19;20372;-48
2022/09/07 08:58:03;;;;;;;4.37;2.27;;;30.40;54.90;;;;;;7385737;19;20949;-49
2022/09/07 09:00:35;;;;;;;5.83;2.30;;;30.80;53.70;;;;;;7386048;19;20871;-49
2022/09/07 09:03:07;;;;;;;5.13;2.23;;;30.90;53.80;;;;;;7387584;19;20574;-49
2022/09/07 09:05:50;;;;;;;11.90;3.10;;;30.80;53.80;;;;;;7384813;19;20396;-48
2022/09/07 09:08:34;;;;;;;4.97;2.80;;;31.00;52.90;;;;;;7385733;19;21069;-49
2022/09/07 09:11:11;;;;;;;4.33;2.30;;;31.00;53.30;;;;;;7386754;19;20384;-49
2022/09/07 09:13:55;;;;;;;4.50;2.30;;;31.30;52.60;;;;;;7384879;19;20729;-49
2022/09/07 09:16:35;;;;;;;4.73;2.20;;;31.70;51.50;;;;;;7387563;19;20997;-49
2022/09/07 09:19:18;;;;;;;4.10;2.53;;;31.60;51.00;;;;;;7383167;19;20414;-49
2022/09/07 09:21:50;;;;;;;4.50;2.57;;;31.80;51.30;;;;;;7386551;19;20754;-49
2022/09/07 09:24:21;;;;;;;6.83;2.57;;;31.40;51.40;;;;;;7387405;19;20451;-49
2022/09/07 09:26:55;;;;;;;4.77;2.40;;;31.10;53.00;;;;;;7384220;19;20384;-49
2022/09/07 09:29:25;;;;;;;5.23;1.93;;;30.80;53.00;;;;;;7384091;19;20946;-49
2022/09/07 09:31:55;;;;;;;4.10;2.57;;;30.70;53.10;;;;;;7387103;19;20409;-48
2022/09/07 09:34:24;;;;;;;5.30;2.37;;;30.60;53.80;;;;;;7384661;19;20412;-49
2022/09/07 09:36:57;;;;;;;8.70;2.80;;;30.30;54.10;;;;;;7386469;19;20384;-49
2022/09/07 09:39:32;;;;;;;4.50;2.10;;;30.10;54.40;;;;;;7385756;19;20376;-52
2022/09/07 09:42:16;;;;;;;4.33;1.87;;;29.80;55.70;;;;;;7385783;19;20412;-58
2022/09/07 09:44:46;;;;;;;4.83;2.60;;;29.60;55.90;;;;;;7385881;19;20384;-57
2022/09/07 09:47:30;;;;;;;6.70;2.20;;;29.40;55.90;;;;;;7384458;19;20781;-57
2022/09/07 09:50:02;;;;;;;6.37;2.07;;;29.60;55.50;;;;;;7385300;19;20372;-58
2022/09/07 09:52:38;;;;;;;5.20;2.13;;;29.90;55.10;;;;;;7386546;19;20406;-58
2022/09/07 09:55:09;;;;;;;5.27;2.57;;;30.20;55.00;;;;;;7385993;19;20453;-58
2022/09/07 09:57:53;;;;;;;4.13;2.57;;;30.30;54.00;;;;;;7384218;19;20468;-57
2022/09/07 10:00:25;;;;;;;4.07;2.30;;;30.10;54.20;;;;;;7383700;19;20409;-58
2022/09/07 10:03:17;;;;;;;3.20;1.97;;;29.70;54.60;;;;;;7385683;19;20387;-58
2022/09/07 10:05:49;;;;;;;5.00;2.43;;;29.70;54.40;;;;;;7383180;19;20784;-58
2022/09/07 10:08:27;;;;;;;7.80;2.60;;;29.40;55.20;;;;;;7383052;19;20371;-57
2022/09/07 10:11:05;;;;;;;4.00;2.20;;;29.60;55.00;;;;;;7385957;19;20388;-48
2022/09/07 10:13:36;;;;;;;7.10;2.80;;;29.80;54.80;;;;;;7385617;19;20733;-49
2022/09/07 10:16:08;;;;;;;5.00;2.27;;;29.80;55.60;;;;;;7385256;19;20386;-49
2022/09/07 10:18:40;;;;;;;6.77;2.37;;;29.70;53.90;;;;;;7384905;19;20372;-49
2022/09/07 10:21:25;;;;;;;7.13;2.17;;;29.60;54.40;;;;;;7384150;19;20415;-49
2022/09/07 10:24:00;;;;;;;7.70;2.50;;;29.50;55.00;;;;;;7384711;19;20380;-48
2022/09/07 10:26:33;;;;;;;4.97;2.23;;;29.30;54.70;;;;;;7385117;19;20391;-49
2022/09/07 10:29:14;;;;;;;6.33;2.40;;;29.10;55.10;;;;;;7384078;19;20384;-48
2022/09/07 10:31:59;;;;;;;5.87;2.00;;;29.10;55.80;;;;;;7385569;19;20414;-49
2022/09/07 10:34:40;;;;;;;5.53;2.33;;;28.90;56.10;;;;;;7384045;19;20461;-48
2022/09/07 10:37:11;;;;;;;4.07;2.50;;;28.70;56.40;;;;;;7384668;19;20981;-48
2022/09/07 10:39:45;;;;;;;4.47;2.60;;;28.70;57.50;;;;;;7386121;19;20493;-57
2022/09/07 10:42:28;;;;;;;4.83;2.17;;;28.80;57.20;;;;;;7383662;19;20384;-57
2022/09/07 10:45:07;;;;;;;11.47;2.87;;;29.00;56.40;;;;;;7384901;19;20376;-58
2022/09/07 10:47:48;;;;;;;5.43;2.10;;;29.10;56.20;;;;;;7382957;19;20467;-57
2022/09/07 10:50:29;;;;;;;3.33;1.80;;;29.40;56.60;;;;;;7382043;19;20417;-57
2022/09/07 10:53:16;;;;;;;3.83;2.00;;;29.70;54.80;;;;;;7384352;19;20779;-57
2022/09/07 10:55:57;;;;;;;4.50;2.33;;;29.90;55.30;;;;;;7383212;19;20388;-57
2022/09/07 10:58:35;;;;;;;3.70;2.13;;;29.70;54.70;;;;;;7382565;19;20492;-58
2022/09/07 11:01:13;;;;;;;4.83;2.27;;;29.40;55.00;;;;;;7380274;19;20435;-57
2022/09/07 11:04:21;;;;;;;4.97;2.63;;;29.30;55.50;;;;;;7382550;19;20379;-57
2022/09/07 11:06:54;;;;;;;9.97;2.57;;;29.10;57.00;;;;;;7379878;19;20416;-58
2022/09/07 11:09:36;;;;;;;6.23;3.00;;;29.00;57.00;;;;;;7381419;19;20429;-58
2022/09/07 11:12:16;;;;;;;6.53;3.07;;;28.90;58.00;;;;;;7382765;19;20902;-57
2022/09/07 11:14:50;;;;;;;6.40;2.80;;;28.60;58.30;;;;;;7383030;19;20398;-57
2022/09/07 11:17:23;;;;;;;6.17;2.60;;;28.50;59.20;;;;;;7385022;19;20439;-57
2022/09/07 11:19:58;;;;;;;5.00;2.83;;;28.60;59.70;;;;;;7390903;19;20387;-58
2022/09/07 11:22:37;;;;;;;10.30;2.93;;;29.10;59.20;;;;;;7390228;19;20921;-58
2022/09/07 11:25:20;;;;;;;3.90;2.73;;;30.20;56.80;;;;;;7390292;19;20431;-58
2022/09/07 11:27:57;;;;;;;6.40;2.43;;;31.20;54.30;;;;;;7389871;19;20376;-58
2022/09/07 11:30:31;;;;;;;3.40;2.30;;;32.10;51.90;;;;;;7386616;19;20426;-58
2022/09/07 11:33:06;;;;;;;4.50;2.10;;;32.80;50.40;;;;;;7389673;19;20383;-57
2022/09/07 11:35:51;;;;;;;4.87;3.00;;;33.40;49.80;;;;;;7391490;19;20376;-57
2022/09/07 11:38:27;;;;;;;8.17;2.50;;;33.70;47.70;;;;;;7391112;19;20387;-57
2022/09/07 11:41:26;;;;;;;4.63;2.03;;;33.80;47.00;;;;;;7391390;19;20382;-58
2022/09/07 11:44:05;;;;;;;5.20;2.70;;;33.50;46.60;;;;;;7389245;19;20407;-58
2022/09/07 11:46:43;;;;;;;5.33;1.80;;;33.80;46.80;;;;;;7389459;19;20388;-58
2022/09/07 11:49:18;;;;;;;3.87;2.07;;;34.50;46.00;;;;;;7389866;19;20503;-58
2022/09/07 11:51:53;;;;;;;4.03;2.20;;;34.90;44.70;;;;;;7390089;19;20913;-58
2022/09/07 11:54:42;;;;;;;4.97;2.70;;;34.90;44.70;;;;;;7387871;19;20944;-58
2022/09/07 11:57:29;;;;;;;2.90;1.67;;;35.00;44.70;;;;;;7387527;19;20913;-58
2022/09/07 12:00:09;;;;;;;4.17;2.33;;;35.40;43.90;;;;;;7390001;19;20459;-57
2022/09/07 12:03:08;;;;;;;5.20;2.20;;;35.50;43.30;;;;;;7390091;19;20375;-58
2022/09/07 12:05:57;;;;;;;4.07;1.90;;;35.00;42.60;;;;;;7386178;19;20443;-58
2022/09/07 12:08:41;;;;;;;5.63;2.37;;;34.90;42.90;;;;;;7389612;19;20378;-57
2022/09/07 12:11:34;;;;;;;4.37;1.93;;;33.90;44.30;;;;;;7389082;19;20369;-58
2022/09/07 12:14:29;;;;;;;4.50;2.13;;;33.30;45.40;;;;;;7388992;19;20488;-58
2022/09/07 12:17:17;;;;;;;5.33;2.27;;;33.50;45.70;;;;;;7389170;19;20432;-58
2022/09/07 12:19:47;;;;;;;3.00;1.83;;;33.60;44.90;;;;;;7388936;19;20396;-49
2022/09/07 12:22:21;;;;;;;4.23;2.50;;;33.90;44.80;;;;;;7387904;19;20444;-52
2022/09/07 12:24:52;;;;;;;4.63;2.27;;;34.10;45.20;;;;;;7389332;19;20372;-49
2022/09/07 12:27:52;;;;;;;5.90;2.23;;;34.60;43.20;;;;;;7390127;19;20369;-49
2022/09/07 12:31:03;;;;;;;4.40;2.33;;;34.60;43.20;;;;;;7382022;19;20694;-49
2022/09/07 12:33:39;;;;;;;5.40;2.57;;;34.80;42.80;;;;;;7388796;19;20902;-49
2022/09/07 12:36:41;;;;;;;4.87;2.37;;;34.00;43.60;;;;;;7387832;19;20384;-49
2022/09/07 12:39:23;;;;;;;4.60;2.10;;;33.50;44.70;;;;;;7388823;19;20423;-49
2022/09/07 12:42:26;;;;;;;3.67;1.93;;;32.90;45.90;;;;;;7389799;19;20380;-49
2022/09/07 12:45:50;;;;;;;4.20;1.90;;;32.90;46.10;;;;;;7388907;19;20375;-49
2022/09/07 12:48:32;;;;;;;3.17;1.87;;;33.50;44.10;;;;;;7388050;19;20387;-49
2022/09/07 12:51:09;;;;;;;4.50;2.20;;;33.80;43.80;;;;;;7387318;19;20831;-49
2022/09/07 12:53:47;;;;;;;6.53;1.70;;;34.20;42.50;;;;;;7387121;19;20945;-49
2022/09/07 12:56:29;;;;;;;2.30;1.47;;;35.00;40.80;;;;;;7388865;19;20460;-49
2022/09/07 12:59:31;;;;;;;2.50;1.50;;;35.30;39.60;;;;;;7386668;19;20925;-49
2022/09/07 13:02:17;;;;;;;7.30;2.50;;;35.50;39.10;;;;;;7385776;19;20993;-49
2022/09/07 13:05:02;;;;;;;8.03;3.10;;;35.20;39.80;;;;;;7389146;19;20384;-49
2022/09/07 13:08:09;;;;;;;2.63;1.50;;;34.80;40.30;;;;;;7383653;19;20388;-49
2022/09/07 13:10:41;;;;;;;4.63;1.80;;;34.70;40.20;;;;;;7384285;19;20400;-49
2022/09/07 13:13:22;;;;;;;2.10;1.50;;;34.40;41.00;;;;;;7387754;19;20380;-49
2022/09/07 13:16:28;;;;;;;2.87;1.70;;;34.10;41.70;;;;;;7386382;19;20368;-49
2022/09/07 13:18:57;;;;;;;4.57;1.90;;;33.60;42.90;;;;;;7357691;19;20959;-49
2022/09/07 13:21:37;;;;;;;2.70;1.40;;;33.30;43.40;;;;;;7387932;19;20416;-58
2022/09/07 13:24:45;;;;;;;6.30;1.87;;;33.30;42.50;;;;;;7386391;19;20909;-58
2022/09/07 13:27:45;;;;;;;2.97;1.83;;;33.00;42.50;;;;;;7387932;19;20958;-57
2022/09/07 13:30:46;;;;;;;4.80;2.00;;;32.80;43.30;;;;;;7387383;19;20420;-56